Aeroporto :
LOGIN :

Iscrizione | Disclaimer

   EN    FR    IT 

 










Sommario :    VFR   VFR Marginale   IFR   IFR Intensivo   IFR Molto Intensivo
Visibilità : 
Base nubi : 
>= 8 km
>= 3000ft
5 / 8 km
1000 / 3000 ft
1500m / 5 km
500 / 1000 ft
800 / 1500m
200 / 500 ft
< 800m
< 200 ft
Simboli :   Temporali  Nebbia  Neve Forte  Precipitazioni Forti  Vento > 20 kt
SIGMETs :   Varie  Temporali  Ghiacco  Turbolenza  Onda orograficha  Ceneri Vulcaniche






- Altitudine del aeroporto : 7 ft
- Codice IATA : XHE


LFTH - Hyeres

ULTIMO METAR :
  • 182230Z AUTO VRB03KT CAVOK 22/17 Q1017 NOSIG

METARs OBSOLETI :
  • 182200Z AUTO 32004KT CAVOK 25/17 Q1017 NOSIG
  • 182130Z AUTO VRB02KT CAVOK 25/17 Q1017 NOSIG
  • 182100Z AUTO 33004KT 290V020 CAVOK 26/16 Q1017 NOSIG
  • 182030Z AUTO 29004KT 230V310 CAVOK 25/17 Q1017 NOSIG
  • 182000Z AUTO VRB01KT CAVOK 24/17 Q1017 NOSIG
  • 181930Z AUTO VRB02KT CAVOK 26/16 Q1017 NOSIG
  • 181900Z AUTO VRB03KT CAVOK 26/17 Q1016 NOSIG
  • 181830Z AUTO 21011KT CAVOK 26/21 Q1016 NOSIG
  • 181800Z AUTO 21012KT CAVOK 26/21 Q1016 NOSIG

TAF TAF LFTH
Valido dal 18 a 21 ore il 19 a 21 ore UTC


182000Z 1821/1921 26010KT CAVOK
BECMG 1822/1824 VRB04KT
BECMG 1908/1910 26015KT
PROB40 1915/1918 26015G25KT



MetMap, La meteo Aeronautica in un colpo d'occhio ! - Copyright ORBIFLY Dicembre 2007 - Disclaimer

ORBIFLY MET'MAP TEAM :

Programmazione e sviluppo : Alexandra Zaïnal
Concezione : Baudouin d'Aumeries
Supporto tecnico e logistico : Manuel Goepfert
Aiuto : Marc-Olivier Méhu
Aiuto per la traduzione : Arnaldo La Scala




FONTI E CREDITI :

   NOAA